sensor_id;sensor_type;location;lat;lon;timestamp;P1;durP1;ratioP1;P2;durP2;ratioP2
20423;SDS011;10371;49.042;8.002;2022-12-11T00:00:52;11.77;;;10.73;;
20423;SDS011;10371;49.042;8.002;2022-12-11T00:01:52;12.50;;;11.17;;
20423;SDS011;10371;49.042;8.002;2022-12-11T00:02:52;13.27;;;11.40;;
20423;SDS011;10371;49.042;8.002;2022-12-11T00:03:52;13.53;;;12.23;;
20423;SDS011;10371;49.042;8.002;2022-12-11T00:04:53;14.00;;;12.60;;
20423;SDS011;10371;49.042;8.002;2022-12-11T00:05:53;14.17;;;12.67;;
20423;SDS011;10371;49.042;8.002;2022-12-11T00:06:53;13.73;;;12.33;;
20423;SDS011;10371;49.042;8.002;2022-12-11T00:07:54;14.33;;;12.80;;
20423;SDS011;10371;49.042;8.002;2022-12-11T00:08:54;14.17;;;12.77;;
20423;SDS011;10371;49.042;8.002;2022-12-11T00:09:54;14.50;;;13.13;;
20423;SDS011;10371;49.042;8.002;2022-12-11T00:10:55;15.20;;;13.00;;
20423;SDS011;10371;49.042;8.002;2022-12-11T00:11:55;14.80;;;13.40;;
20423;SDS011;10371;49.042;8.002;2022-12-11T00:12:55;14.43;;;13.13;;
20423;SDS011;10371;49.042;8.002;2022-12-11T00:13:56;15.50;;;13.90;;
20423;SDS011;10371;49.042;8.002;2022-12-11T00:14:56;14.40;;;13.00;;
20423;SDS011;10371;49.042;8.002;2022-12-11T00:15:57;13.87;;;12.47;;
20423;SDS011;10371;49.042;8.002;2022-12-11T00:16:58;13.63;;;12.37;;
20423;SDS011;10371;49.042;8.002;2022-12-11T00:17:58;13.47;;;12.17;;
20423;SDS011;10371;49.042;8.002;2022-12-11T00:18:58;14.37;;;12.93;;
20423;SDS011;10371;49.042;8.002;2022-12-11T00:19:59;13.77;;;12.33;;
20423;SDS011;10371;49.042;8.002;2022-12-11T00:21:00;14.40;;;13.03;;
20423;SDS011;10371;49.042;8.002;2022-12-11T00:22:01;15.13;;;13.53;;
20423;SDS011;10371;49.042;8.002;2022-12-11T00:23:01;14.17;;;12.87;;
20423;SDS011;10371;49.042;8.002;2022-12-11T00:24:04;14.73;;;13.07;;
20423;SDS011;10371;49.042;8.002;2022-12-11T00:25:05;15.97;;;14.37;;
20423;SDS011;10371;49.042;8.002;2022-12-11T00:26:06;15.33;;;13.77;;
20423;SDS011;10371;49.042;8.002;2022-12-11T00:27:09;14.80;;;13.40;;
20423;SDS011;10371;49.042;8.002;2022-12-11T00:28:11;15.23;;;13.83;;
20423;SDS011;10371;49.042;8.002;2022-12-11T00:29:11;15.53;;;13.93;;
20423;SDS011;10371;49.042;8.002;2022-12-11T00:30:15;15.57;;;14.07;;
20423;SDS011;10371;49.042;8.002;2022-12-11T00:31:16;15.20;;;13.63;;
20423;SDS011;10371;49.042;8.002;2022-12-11T00:32:17;16.63;;;15.03;;
20423;SDS011;10371;49.042;8.002;2022-12-11T00:33:18;17.40;;;15.73;;
20423;SDS011;10371;49.042;8.002;2022-12-11T00:34:18;17.73;;;15.93;;
20423;SDS011;10371;49.042;8.002;2022-12-11T00:35:18;17.87;;;16.07;;
20423;SDS011;10371;49.042;8.002;2022-12-11T00:36:20;18.77;;;16.93;;
20423;SDS011;10371;49.042;8.002;2022-12-11T00:37:21;18.43;;;16.63;;
20423;SDS011;10371;49.042;8.002;2022-12-11T00:38:21;21.13;;;19.03;;
20423;SDS011;10371;49.042;8.002;2022-12-11T00:39:23;20.70;;;18.60;;
20423;SDS011;10371;49.042;8.002;2022-12-11T00:40:23;22.13;;;20.03;;
20423;SDS011;10371;49.042;8.002;2022-12-11T00:41:23;21.07;;;18.97;;
20423;SDS011;10371;49.042;8.002;2022-12-11T00:42:24;20.27;;;18.27;;
20423;SDS011;10371;49.042;8.002;2022-12-11T00:43:24;19.87;;;17.87;;
20423;SDS011;10371;49.042;8.002;2022-12-11T00:44:25;18.13;;;16.30;;
20423;SDS011;10371;49.042;8.002;2022-12-11T00:45:25;16.70;;;15.00;;
20423;SDS011;10371;49.042;8.002;2022-12-11T00:46:25;16.60;;;14.97;;
20423;SDS011;10371;49.042;8.002;2022-12-11T00:47:26;15.57;;;13.97;;
20423;SDS011;10371;49.042;8.002;2022-12-11T00:48:26;15.80;;;14.30;;
20423;SDS011;10371;49.042;8.002;2022-12-11T00:49:26;16.43;;;14.67;;
20423;SDS011;10371;49.042;8.002;2022-12-11T00:50:27;15.53;;;14.03;;
20423;SDS011;10371;49.042;8.002;2022-12-11T00:51:27;15.53;;;14.10;;
20423;SDS011;10371;49.042;8.002;2022-12-11T00:52:28;15.70;;;14.10;;
20423;SDS011;10371;49.042;8.002;2022-12-11T00:53:28;15.87;;;14.37;;
20423;SDS011;10371;49.042;8.002;2022-12-11T00:54:29;16.37;;;14.67;;
20423;SDS011;10371;49.042;8.002;2022-12-11T00:55:29;18.07;;;16.17;;
20423;SDS011;10371;49.042;8.002;2022-12-11T00:56:29;17.23;;;15.33;;
20423;SDS011;10371;49.042;8.002;2022-12-11T00:57:30;17.63;;;15.80;;
20423;SDS011;10371;49.042;8.002;2022-12-11T00:58:30;17.90;;;16.03;;
20423;SDS011;10371;49.042;8.002;2022-12-11T00:59:30;16.53;;;14.83;;
20423;SDS011;10371;49.042;8.002;2022-12-11T01:00:31;18.67;;;16.33;;
20423;SDS011;10371;49.042;8.002;2022-12-11T01:01:31;18.23;;;16.33;;
20423;SDS011;10371;49.042;8.002;2022-12-11T01:02:32;18.60;;;16.57;;
20423;SDS011;10371;49.042;8.002;2022-12-11T01:03:33;20.70;;;18.50;;
20423;SDS011;10371;49.042;8.002;2022-12-11T01:04:36;22.17;;;19.87;;
20423;SDS011;10371;49.042;8.002;2022-12-11T01:05:36;21.13;;;18.93;;
20423;SDS011;10371;49.042;8.002;2022-12-11T01:06:37;25.53;;;20.97;;
20423;SDS011;10371;49.042;8.002;2022-12-11T01:07:38;22.57;;;20.17;;
20423;SDS011;10371;49.042;8.002;2022-12-11T01:08:38;23.57;;;20.73;;
20423;SDS011;10371;49.042;8.002;2022-12-11T01:09:38;23.33;;;20.83;;
20423;SDS011;10371;49.042;8.002;2022-12-11T01:11:15;22.70;;;20.20;;
20423;SDS011;10371;49.042;8.002;2022-12-11T01:12:16;22.20;;;19.80;;
20423;SDS011;10371;49.042;8.002;2022-12-11T01:13:16;21.33;;;18.90;;
20423;SDS011;10371;49.042;8.002;2022-12-11T01:14:16;20.20;;;18.10;;
20423;SDS011;10371;49.042;8.002;2022-12-11T01:15:17;20.70;;;18.57;;
20423;SDS011;10371;49.042;8.002;2022-12-11T01:16:19;22.67;;;19.73;;
20423;SDS011;10371;49.042;8.002;2022-12-11T01:17:19;21.37;;;19.07;;
20423;SDS011;10371;49.042;8.002;2022-12-11T01:18:19;22.23;;;19.00;;
20423;SDS011;10371;49.042;8.002;2022-12-11T01:19:20;23.10;;;20.03;;
20423;SDS011;10371;49.042;8.002;2022-12-11T01:20:21;22.47;;;19.63;;
20423;SDS011;10371;49.042;8.002;2022-12-11T01:21:23;21.10;;;18.83;;
20423;SDS011;10371;49.042;8.002;2022-12-11T01:22:23;23.53;;;19.97;;
20423;SDS011;10371;49.042;8.002;2022-12-11T01:23:23;22.27;;;20.07;;
20423;SDS011;10371;49.042;8.002;2022-12-11T01:24:24;20.83;;;18.63;;
20423;SDS011;10371;49.042;8.002;2022-12-11T01:25:24;20.77;;;18.53;;
20423;SDS011;10371;49.042;8.002;2022-12-11T01:26:26;19.70;;;17.60;;
20423;SDS011;10371;49.042;8.002;2022-12-11T01:27:26;18.90;;;16.97;;
20423;SDS011;10371;49.042;8.002;2022-12-11T01:28:27;20.73;;;18.50;;
20423;SDS011;10371;49.042;8.002;2022-12-11T01:29:27;20.57;;;18.37;;
20423;SDS011;10371;49.042;8.002;2022-12-11T01:30:27;18.60;;;16.63;;
20423;SDS011;10371;49.042;8.002;2022-12-11T01:31:27;19.40;;;17.27;;
20423;SDS011;10371;49.042;8.002;2022-12-11T01:32:28;19.93;;;17.27;;
20423;SDS011;10371;49.042;8.002;2022-12-11T01:33:28;19.47;;;17.47;;
20423;SDS011;10371;49.042;8.002;2022-12-11T01:34:29;20.27;;;17.30;;
20423;SDS011;10371;49.042;8.002;2022-12-11T01:35:30;20.60;;;18.33;;
20423;SDS011;10371;49.042;8.002;2022-12-11T01:36:30;18.77;;;16.10;;
20423;SDS011;10371;49.042;8.002;2022-12-11T01:37:31;19.47;;;17.37;;
20423;SDS011;10371;49.042;8.002;2022-12-11T01:38:31;19.43;;;17.13;;
20423;SDS011;10371;49.042;8.002;2022-12-11T01:39:32;19.60;;;17.20;;
20423;SDS011;10371;49.042;8.002;2022-12-11T01:40:32;17.73;;;15.93;;
20423;SDS011;10371;49.042;8.002;2022-12-11T01:41:33;18.27;;;16.47;;
20423;SDS011;10371;49.042;8.002;2022-12-11T01:42:33;19.27;;;17.33;;
20423;SDS011;10371;49.042;8.002;2022-12-11T01:43:34;18.77;;;16.80;;
20423;SDS011;10371;49.042;8.002;2022-12-11T01:45:37;18.70;;;16.80;;
20423;SDS011;10371;49.042;8.002;2022-12-11T01:46:39;18.67;;;16.77;;
20423;SDS011;10371;49.042;8.002;2022-12-11T01:47:40;19.80;;;17.33;;
20423;SDS011;10371;49.042;8.002;2022-12-11T01:48:41;17.97;;;16.10;;
20423;SDS011;10371;49.042;8.002;2022-12-11T01:49:41;19.30;;;17.30;;
20423;SDS011;10371;49.042;8.002;2022-12-11T01:50:49;17.27;;;15.40;;
20423;SDS011;10371;49.042;8.002;2022-12-11T01:51:54;18.43;;;16.53;;
20423;SDS011;10371;49.042;8.002;2022-12-11T01:53:02;17.73;;;16.03;;
20423;SDS011;10371;49.042;8.002;2022-12-11T01:54:08;19.77;;;16.27;;
20423;SDS011;10371;49.042;8.002;2022-12-11T01:55:12;19.80;;;17.30;;
20423;SDS011;10371;49.042;8.002;2022-12-11T01:56:13;19.20;;;16.47;;
20423;SDS011;10371;49.042;8.002;2022-12-11T01:57:13;17.60;;;15.80;;
20423;SDS011;10371;49.042;8.002;2022-12-11T01:58:15;17.97;;;16.17;;
20423;SDS011;10371;49.042;8.002;2022-12-11T01:59:18;18.17;;;16.30;;
20423;SDS011;10371;49.042;8.002;2022-12-11T02:00:22;19.30;;;16.83;;
20423;SDS011;10371;49.042;8.002;2022-12-11T02:01:28;18.03;;;16.23;;
20423;SDS011;10371;49.042;8.002;2022-12-11T02:02:34;18.43;;;16.53;;
20423;SDS011;10371;49.042;8.002;2022-12-11T02:03:34;18.77;;;16.87;;
20423;SDS011;10371;49.042;8.002;2022-12-11T02:04:35;17.97;;;16.07;;
20423;SDS011;10371;49.042;8.002;2022-12-11T02:05:38;18.43;;;16.33;;
20423;SDS011;10371;49.042;8.002;2022-12-11T02:06:39;18.30;;;16.30;;
20423;SDS011;10371;49.042;8.002;2022-12-11T02:07:44;18.90;;;16.90;;
20423;SDS011;10371;49.042;8.002;2022-12-11T02:08:48;18.93;;;16.97;;
20423;SDS011;10371;49.042;8.002;2022-12-11T02:09:48;20.43;;;17.80;;
20423;SDS011;10371;49.042;8.002;2022-12-11T02:10:54;18.73;;;16.60;;
20423;SDS011;10371;49.042;8.002;2022-12-11T02:13:15;20.27;;;18.17;;
20423;SDS011;10371;49.042;8.002;2022-12-11T02:16:55;20.33;;;17.90;;
20423;SDS011;10371;49.042;8.002;2022-12-11T02:20:26;20.17;;;17.97;;
20423;SDS011;10371;49.042;8.002;2022-12-11T02:21:33;19.37;;;17.33;;
20423;SDS011;10371;49.042;8.002;2022-12-11T02:25:16;26.23;;;23.47;;
20423;SDS011;10371;49.042;8.002;2022-12-11T02:27:52;24.43;;;21.83;;
20423;SDS011;10371;49.042;8.002;2022-12-11T02:28:58;24.60;;;21.40;;
20423;SDS011;10371;49.042;8.002;2022-12-11T02:30:08;24.10;;;21.50;;
20423;SDS011;10371;49.042;8.002;2022-12-11T02:31:13;23.27;;;20.83;;
20423;SDS011;10371;49.042;8.002;2022-12-11T02:32:30;22.40;;;20.00;;
20423;SDS011;10371;49.042;8.002;2022-12-11T02:33:48;21.57;;;19.27;;
20423;SDS011;10371;49.042;8.002;2022-12-11T02:34:59;21.53;;;19.23;;
20423;SDS011;10371;49.042;8.002;2022-12-11T02:36:14;22.97;;;20.47;;
20423;SDS011;10371;49.042;8.002;2022-12-11T02:37:20;22.10;;;19.63;;
20423;SDS011;10371;49.042;8.002;2022-12-11T02:38:27;23.37;;;20.90;;
20423;SDS011;10371;49.042;8.002;2022-12-11T02:39:32;23.40;;;20.30;;
20423;SDS011;10371;49.042;8.002;2022-12-11T02:40:38;22.03;;;19.70;;
20423;SDS011;10371;49.042;8.002;2022-12-11T02:41:46;23.07;;;20.57;;
20423;SDS011;10371;49.042;8.002;2022-12-11T02:42:49;23.50;;;20.83;;
20423;SDS011;10371;49.042;8.002;2022-12-11T02:43:51;24.70;;;21.53;;
20423;SDS011;10371;49.042;8.002;2022-12-11T02:44:52;23.87;;;21.27;;
20423;SDS011;10371;49.042;8.002;2022-12-11T02:45:55;24.40;;;21.47;;
20423;SDS011;10371;49.042;8.002;2022-12-11T02:46:58;25.07;;;21.67;;
20423;SDS011;10371;49.042;8.002;2022-12-11T02:48:00;24.37;;;21.77;;
20423;SDS011;10371;49.042;8.002;2022-12-11T02:49:04;24.23;;;21.53;;
20423;SDS011;10371;49.042;8.002;2022-12-11T02:50:08;24.97;;;22.13;;
20423;SDS011;10371;49.042;8.002;2022-12-11T02:51:12;25.13;;;22.43;;
20423;SDS011;10371;49.042;8.002;2022-12-11T02:52:16;25.53;;;22.40;;
20423;SDS011;10371;49.042;8.002;2022-12-11T02:53:21;25.00;;;21.47;;
20423;SDS011;10371;49.042;8.002;2022-12-11T02:54:26;24.67;;;22.10;;
20423;SDS011;10371;49.042;8.002;2022-12-11T02:55:30;24.07;;;21.03;;
20423;SDS011;10371;49.042;8.002;2022-12-11T02:56:39;24.70;;;22.00;;
20423;SDS011;10371;49.042;8.002;2022-12-11T02:57:46;23.97;;;20.80;;
20423;SDS011;10371;49.042;8.002;2022-12-11T02:59:10;23.70;;;20.57;;
20423;SDS011;10371;49.042;8.002;2022-12-11T03:00:14;23.73;;;21.23;;
20423;SDS011;10371;49.042;8.002;2022-12-11T03:01:15;25.90;;;22.20;;
20423;SDS011;10371;49.042;8.002;2022-12-11T03:02:16;25.73;;;22.93;;
20423;SDS011;10371;49.042;8.002;2022-12-11T03:03:17;22.87;;;19.90;;
20423;SDS011;10371;49.042;8.002;2022-12-11T03:04:18;24.27;;;20.63;;
20423;SDS011;10371;49.042;8.002;2022-12-11T03:05:23;24.53;;;20.93;;
20423;SDS011;10371;49.042;8.002;2022-12-11T03:06:34;23.90;;;20.33;;
20423;SDS011;10371;49.042;8.002;2022-12-11T03:07:37;23.30;;;20.80;;
20423;SDS011;10371;49.042;8.002;2022-12-11T03:08:38;25.37;;;21.70;;
20423;SDS011;10371;49.042;8.002;2022-12-11T03:09:39;24.70;;;20.17;;
20423;SDS011;10371;49.042;8.002;2022-12-11T03:10:41;23.87;;;20.07;;
20423;SDS011;10371;49.042;8.002;2022-12-11T03:11:42;22.70;;;19.77;;
20423;SDS011;10371;49.042;8.002;2022-12-11T03:12:43;22.57;;;20.07;;
20423;SDS011;10371;49.042;8.002;2022-12-11T03:13:46;24.33;;;19.30;;
20423;SDS011;10371;49.042;8.002;2022-12-11T03:14:46;24.17;;;20.13;;
20423;SDS011;10371;49.042;8.002;2022-12-11T03:17:13;25.37;;;19.97;;
20423;SDS011;10371;49.042;8.002;2022-12-11T03:18:46;23.47;;;19.23;;
20423;SDS011;10371;49.042;8.002;2022-12-11T03:19:58;24.90;;;21.03;;
20423;SDS011;10371;49.042;8.002;2022-12-11T03:22:12;22.47;;;19.33;;
20423;SDS011;10371;49.042;8.002;2022-12-11T03:23:19;23.87;;;19.90;;
20423;SDS011;10371;49.042;8.002;2022-12-11T03:24:25;21.73;;;19.23;;
20423;SDS011;10371;49.042;8.002;2022-12-11T03:25:32;25.27;;;19.73;;
20423;SDS011;10371;49.042;8.002;2022-12-11T03:26:36;22.60;;;18.80;;
20423;SDS011;10371;49.042;8.002;2022-12-11T03:27:42;24.00;;;18.50;;
20423;SDS011;10371;49.042;8.002;2022-12-11T03:28:54;24.37;;;20.00;;
20423;SDS011;10371;49.042;8.002;2022-12-11T03:29:59;22.30;;;18.97;;
20423;SDS011;10371;49.042;8.002;2022-12-11T03:31:05;21.97;;;18.47;;
20423;SDS011;10371;49.042;8.002;2022-12-11T03:32:12;23.10;;;19.83;;
20423;SDS011;10371;49.042;8.002;2022-12-11T03:33:21;22.67;;;18.83;;
20423;SDS011;10371;49.042;8.002;2022-12-11T03:34:26;22.63;;;19.00;;
20423;SDS011;10371;49.042;8.002;2022-12-11T03:35:33;21.10;;;18.80;;
20423;SDS011;10371;49.042;8.002;2022-12-11T03:36:40;24.00;;;19.10;;
20423;SDS011;10371;49.042;8.002;2022-12-11T03:37:42;22.07;;;18.93;;
20423;SDS011;10371;49.042;8.002;2022-12-11T03:38:45;22.80;;;19.37;;
20423;SDS011;10371;49.042;8.002;2022-12-11T03:39:49;22.87;;;19.83;;
20423;SDS011;10371;49.042;8.002;2022-12-11T03:40:53;23.07;;;18.43;;
20423;SDS011;10371;49.042;8.002;2022-12-11T03:41:58;21.83;;;19.30;;
20423;SDS011;10371;49.042;8.002;2022-12-11T03:43:01;23.10;;;18.53;;
20423;SDS011;10371;49.042;8.002;2022-12-11T03:44:03;23.10;;;20.17;;
20423;SDS011;10371;49.042;8.002;2022-12-11T03:45:05;24.00;;;20.27;;
20423;SDS011;10371;49.042;8.002;2022-12-11T03:46:07;23.83;;;19.57;;
20423;SDS011;10371;49.042;8.002;2022-12-11T03:47:09;25.23;;;20.47;;
20423;SDS011;10371;49.042;8.002;2022-12-11T03:48:11;25.90;;;21.00;;
20423;SDS011;10371;49.042;8.002;2022-12-11T03:49:15;24.17;;;20.20;;
20423;SDS011;10371;49.042;8.002;2022-12-11T03:50:19;25.87;;;20.70;;
20423;SDS011;10371;49.042;8.002;2022-12-11T03:51:22;23.63;;;19.33;;
20423;SDS011;10371;49.042;8.002;2022-12-11T03:52:25;23.23;;;19.10;;
20423;SDS011;10371;49.042;8.002;2022-12-11T03:53:26;23.07;;;19.43;;
20423;SDS011;10371;49.042;8.002;2022-12-11T03:54:27;24.60;;;19.03;;
20423;SDS011;10371;49.042;8.002;2022-12-11T03:55:28;24.33;;;18.93;;
20423;SDS011;10371;49.042;8.002;2022-12-11T03:56:31;24.67;;;19.47;;
20423;SDS011;10371;49.042;8.002;2022-12-11T03:57:34;23.17;;;19.23;;
20423;SDS011;10371;49.042;8.002;2022-12-11T03:58:36;24.57;;;19.73;;
20423;SDS011;10371;49.042;8.002;2022-12-11T03:59:37;24.53;;;19.47;;
20423;SDS011;10371;49.042;8.002;2022-12-11T04:00:37;25.80;;;20.60;;
20423;SDS011;10371;49.042;8.002;2022-12-11T04:01:38;23.87;;;20.20;;
20423;SDS011;10371;49.042;8.002;2022-12-11T04:02:39;24.20;;;20.53;;
20423;SDS011;10371;49.042;8.002;2022-12-11T04:03:40;25.03;;;20.13;;
20423;SDS011;10371;49.042;8.002;2022-12-11T04:04:40;22.53;;;19.67;;
20423;SDS011;10371;49.042;8.002;2022-12-11T04:05:42;22.87;;;19.90;;
20423;SDS011;10371;49.042;8.002;2022-12-11T04:06:42;22.60;;;20.20;;
20423;SDS011;10371;49.042;8.002;2022-12-11T04:07:42;22.63;;;19.67;;
20423;SDS011;10371;49.042;8.002;2022-12-11T04:08:43;23.23;;;20.23;;
20423;SDS011;10371;49.042;8.002;2022-12-11T04:09:43;21.73;;;19.37;;
20423;SDS011;10371;49.042;8.002;2022-12-11T04:10:43;22.77;;;18.53;;
20423;SDS011;10371;49.042;8.002;2022-12-11T04:11:44;22.27;;;19.47;;
20423;SDS011;10371;49.042;8.002;2022-12-11T04:12:44;25.43;;;20.00;;
20423;SDS011;10371;49.042;8.002;2022-12-11T04:13:44;23.83;;;18.80;;
20423;SDS011;10371;49.042;8.002;2022-12-11T04:14:44;20.57;;;17.40;;
20423;SDS011;10371;49.042;8.002;2022-12-11T04:16:03;22.43;;;18.90;;
20423;SDS011;10371;49.042;8.002;2022-12-11T04:17:04;22.10;;;18.53;;
20423;SDS011;10371;49.042;8.002;2022-12-11T04:18:05;20.63;;;18.17;;
20423;SDS011;10371;49.042;8.002;2022-12-11T04:19:25;23.77;;;19.23;;
20423;SDS011;10371;49.042;8.002;2022-12-11T04:20:44;23.70;;;19.50;;
20423;SDS011;10371;49.042;8.002;2022-12-11T04:22:03;22.37;;;18.73;;
20423;SDS011;10371;49.042;8.002;2022-12-11T04:23:32;22.50;;;18.13;;
20423;SDS011;10371;49.042;8.002;2022-12-11T04:24:51;23.37;;;19.10;;
20423;SDS011;10371;49.042;8.002;2022-12-11T04:25:51;23.97;;;19.27;;
20423;SDS011;10371;49.042;8.002;2022-12-11T04:26:52;22.70;;;19.23;;
20423;SDS011;10371;49.042;8.002;2022-12-11T04:27:52;23.10;;;19.60;;
20423;SDS011;10371;49.042;8.002;2022-12-11T04:28:52;24.93;;;20.77;;
20423;SDS011;10371;49.042;8.002;2022-12-11T04:29:53;24.90;;;20.73;;
20423;SDS011;10371;49.042;8.002;2022-12-11T04:30:53;24.13;;;19.70;;
20423;SDS011;10371;49.042;8.002;2022-12-11T04:31:53;24.33;;;19.10;;
20423;SDS011;10371;49.042;8.002;2022-12-11T04:32:54;24.97;;;20.70;;
20423;SDS011;10371;49.042;8.002;2022-12-11T04:33:54;23.47;;;19.37;;
20423;SDS011;10371;49.042;8.002;2022-12-11T04:34:54;23.90;;;19.57;;
20423;SDS011;10371;49.042;8.002;2022-12-11T04:35:58;24.63;;;19.97;;
20423;SDS011;10371;49.042;8.002;2022-12-11T04:36:59;24.03;;;19.93;;
20423;SDS011;10371;49.042;8.002;2022-12-11T04:38:00;26.23;;;19.93;;
20423;SDS011;10371;49.042;8.002;2022-12-11T04:39:00;24.17;;;19.67;;
20423;SDS011;10371;49.042;8.002;2022-12-11T04:40:00;23.53;;;20.47;;
20423;SDS011;10371;49.042;8.002;2022-12-11T04:41:08;23.40;;;19.57;;
20423;SDS011;10371;49.042;8.002;2022-12-11T04:42:10;25.00;;;20.20;;
20423;SDS011;10371;49.042;8.002;2022-12-11T04:43:10;22.93;;;19.87;;
20423;SDS011;10371;49.042;8.002;2022-12-11T04:44:10;26.67;;;20.60;;
20423;SDS011;10371;49.042;8.002;2022-12-11T04:45:11;23.93;;;19.63;;
20423;SDS011;10371;49.042;8.002;2022-12-11T04:46:16;23.13;;;20.17;;
20423;SDS011;10371;49.042;8.002;2022-12-11T04:47:18;24.73;;;21.50;;
20423;SDS011;10371;49.042;8.002;2022-12-11T04:48:18;22.63;;;20.20;;
20423;SDS011;10371;49.042;8.002;2022-12-11T04:49:19;23.40;;;18.83;;
20423;SDS011;10371;49.042;8.002;2022-12-11T04:50:19;24.70;;;21.27;;
20423;SDS011;10371;49.042;8.002;2022-12-11T04:51:19;24.40;;;20.57;;
20423;SDS011;10371;49.042;8.002;2022-12-11T04:52:20;25.57;;;19.87;;
20423;SDS011;10371;49.042;8.002;2022-12-11T04:53:20;23.17;;;19.00;;
20423;SDS011;10371;49.042;8.002;2022-12-11T04:54:20;24.93;;;20.03;;
20423;SDS011;10371;49.042;8.002;2022-12-11T04:55:21;25.70;;;20.27;;
20423;SDS011;10371;49.042;8.002;2022-12-11T04:56:22;25.87;;;20.77;;
20423;SDS011;10371;49.042;8.002;2022-12-11T04:57:22;23.93;;;20.27;;
20423;SDS011;10371;49.042;8.002;2022-12-11T04:58:23;25.47;;;20.67;;
20423;SDS011;10371;49.042;8.002;2022-12-11T04:59:24;24.13;;;19.93;;
20423;SDS011;10371;49.042;8.002;2022-12-11T05:00:24;23.23;;;20.07;;
20423;SDS011;10371;49.042;8.002;2022-12-11T05:01:26;25.20;;;20.93;;
20423;SDS011;10371;49.042;8.002;2022-12-11T05:02:26;26.73;;;20.30;;
20423;SDS011;10371;49.042;8.002;2022-12-11T05:03:26;24.17;;;20.23;;
20423;SDS011;10371;49.042;8.002;2022-12-11T05:04:30;25.97;;;20.13;;
20423;SDS011;10371;49.042;8.002;2022-12-11T05:05:31;24.53;;;20.97;;
20423;SDS011;10371;49.042;8.002;2022-12-11T05:06:32;24.40;;;19.97;;
20423;SDS011;10371;49.042;8.002;2022-12-11T05:07:32;25.30;;;20.43;;
20423;SDS011;10371;49.042;8.002;2022-12-11T05:08:33;24.33;;;20.10;;
20423;SDS011;10371;49.042;8.002;2022-12-11T05:09:35;25.60;;;21.13;;
20423;SDS011;10371;49.042;8.002;2022-12-11T05:10:35;24.73;;;21.50;;
20423;SDS011;10371;49.042;8.002;2022-12-11T05:11:36;28.17;;;21.53;;
20423;SDS011;10371;49.042;8.002;2022-12-11T05:12:36;27.63;;;22.10;;
20423;SDS011;10371;49.042;8.002;2022-12-11T05:13:37;25.13;;;20.87;;
20423;SDS011;10371;49.042;8.002;2022-12-11T05:14:38;27.37;;;21.97;;
20423;SDS011;10371;49.042;8.002;2022-12-11T05:15:38;25.87;;;21.53;;
20423;SDS011;10371;49.042;8.002;2022-12-11T05:16:39;27.50;;;22.33;;
20423;SDS011;10371;49.042;8.002;2022-12-11T05:17:39;28.07;;;22.07;;
20423;SDS011;10371;49.042;8.002;2022-12-11T05:18:40;25.50;;;20.97;;
20423;SDS011;10371;49.042;8.002;2022-12-11T05:19:41;26.67;;;21.70;;
20423;SDS011;10371;49.042;8.002;2022-12-11T05:20:41;26.83;;;22.00;;
20423;SDS011;10371;49.042;8.002;2022-12-11T05:21:41;26.30;;;21.73;;
20423;SDS011;10371;49.042;8.002;2022-12-11T05:22:41;25.37;;;21.17;;
20423;SDS011;10371;49.042;8.002;2022-12-11T05:23:42;25.37;;;20.93;;
20423;SDS011;10371;49.042;8.002;2022-12-11T05:24:42;25.73;;;20.73;;
20423;SDS011;10371;49.042;8.002;2022-12-11T05:25:49;26.50;;;21.37;;
20423;SDS011;10371;49.042;8.002;2022-12-11T05:26:51;25.23;;;20.87;;
20423;SDS011;10371;49.042;8.002;2022-12-11T05:27:51;26.10;;;20.97;;
20423;SDS011;10371;49.042;8.002;2022-12-11T05:28:52;26.23;;;22.23;;
20423;SDS011;10371;49.042;8.002;2022-12-11T05:29:54;27.63;;;22.67;;
20423;SDS011;10371;49.042;8.002;2022-12-11T05:30:56;27.57;;;22.13;;
20423;SDS011;10371;49.042;8.002;2022-12-11T05:32:02;27.63;;;23.60;;
20423;SDS011;10371;49.042;8.002;2022-12-11T05:33:03;29.93;;;23.50;;
20423;SDS011;10371;49.042;8.002;2022-12-11T05:34:04;28.63;;;23.10;;
20423;SDS011;10371;49.042;8.002;2022-12-11T05:35:04;29.97;;;23.60;;
20423;SDS011;10371;49.042;8.002;2022-12-11T05:36:05;31.60;;;24.33;;
20423;SDS011;10371;49.042;8.002;2022-12-11T05:37:06;30.23;;;24.87;;
20423;SDS011;10371;49.042;8.002;2022-12-11T05:38:06;28.83;;;23.80;;
20423;SDS011;10371;49.042;8.002;2022-12-11T05:39:07;32.27;;;24.53;;
20423;SDS011;10371;49.042;8.002;2022-12-11T05:40:08;31.20;;;25.00;;
20423;SDS011;10371;49.042;8.002;2022-12-11T05:41:12;34.13;;;26.30;;
20423;SDS011;10371;49.042;8.002;2022-12-11T05:42:14;33.53;;;25.97;;
20423;SDS011;10371;49.042;8.002;2022-12-11T05:43:14;32.93;;;26.77;;
20423;SDS011;10371;49.042;8.002;2022-12-11T05:44:14;33.00;;;25.13;;
20423;SDS011;10371;49.042;8.002;2022-12-11T05:45:15;34.03;;;25.97;;
20423;SDS011;10371;49.042;8.002;2022-12-11T05:46:17;35.20;;;25.87;;
20423;SDS011;10371;49.042;8.002;2022-12-11T05:47:22;33.30;;;25.90;;
20423;SDS011;10371;49.042;8.002;2022-12-11T05:48:22;32.57;;;24.97;;
20423;SDS011;10371;49.042;8.002;2022-12-11T05:49:22;31.33;;;24.20;;
20423;SDS011;10371;49.042;8.002;2022-12-11T05:50:22;30.43;;;24.27;;
20423;SDS011;10371;49.042;8.002;2022-12-11T05:51:23;31.10;;;23.43;;
20423;SDS011;10371;49.042;8.002;2022-12-11T05:52:24;31.60;;;25.03;;
20423;SDS011;10371;49.042;8.002;2022-12-11T05:53:24;31.80;;;24.80;;
20423;SDS011;10371;49.042;8.002;2022-12-11T05:54:25;32.63;;;24.60;;
20423;SDS011;10371;49.042;8.002;2022-12-11T05:55:25;32.10;;;24.23;;
20423;SDS011;10371;49.042;8.002;2022-12-11T05:56:30;34.27;;;25.40;;
20423;SDS011;10371;49.042;8.002;2022-12-11T05:57:31;30.70;;;23.97;;
20423;SDS011;10371;49.042;8.002;2022-12-11T05:58:32;34.60;;;25.27;;
20423;SDS011;10371;49.042;8.002;2022-12-11T05:59:33;36.00;;;26.20;;
20423;SDS011;10371;49.042;8.002;2022-12-11T06:00:34;34.07;;;25.00;;
20423;SDS011;10371;49.042;8.002;2022-12-11T06:01:38;36.07;;;25.80;;
20423;SDS011;10371;49.042;8.002;2022-12-11T06:02:40;35.00;;;26.77;;
20423;SDS011;10371;49.042;8.002;2022-12-11T06:03:40;35.00;;;26.60;;
20423;SDS011;10371;49.042;8.002;2022-12-11T06:04:41;34.10;;;26.37;;
20423;SDS011;10371;49.042;8.002;2022-12-11T06:05:41;40.63;;;31.03;;
20423;SDS011;10371;49.042;8.002;2022-12-11T06:06:42;39.53;;;31.70;;
20423;SDS011;10371;49.042;8.002;2022-12-11T06:07:42;42.07;;;32.93;;
20423;SDS011;10371;49.042;8.002;2022-12-11T06:08:43;46.40;;;35.93;;
20423;SDS011;10371;49.042;8.002;2022-12-11T06:09:43;51.40;;;39.70;;
20423;SDS011;10371;49.042;8.002;2022-12-11T06:10:44;48.17;;;37.87;;
20423;SDS011;10371;49.042;8.002;2022-12-11T06:11:48;41.33;;;33.70;;
20423;SDS011;10371;49.042;8.002;2022-12-11T06:12:49;42.00;;;31.93;;
20423;SDS011;10371;49.042;8.002;2022-12-11T06:13:49;36.47;;;27.77;;
20423;SDS011;10371;49.042;8.002;2022-12-11T06:14:51;34.03;;;26.50;;
20423;SDS011;10371;49.042;8.002;2022-12-11T06:15:51;35.53;;;26.20;;
20423;SDS011;10371;49.042;8.002;2022-12-11T06:16:51;33.57;;;25.80;;
20423;SDS011;10371;49.042;8.002;2022-12-11T06:17:52;36.10;;;26.50;;
20423;SDS011;10371;49.042;8.002;2022-12-11T06:18:52;33.73;;;26.70;;
20423;SDS011;10371;49.042;8.002;2022-12-11T06:19:52;35.00;;;27.33;;